createdAt,value
2022-11-12T00:00:13.958Z,21.40
2022-11-12T00:03:11.447Z,27.10
2022-11-12T00:05:57.160Z,24.20
2022-11-12T00:08:42.650Z,24.10
2022-11-12T00:11:27.943Z,19.60
2022-11-12T00:14:13.503Z,19.30
2022-11-12T00:16:58.654Z,19.70
2022-11-12T00:19:43.887Z,18.00
2022-11-12T00:22:29.378Z,18.50
2022-11-12T00:25:15.186Z,18.00
2022-11-12T00:28:06.438Z,19.10
2022-11-12T00:30:52.117Z,19.30
2022-11-12T00:33:42.081Z,18.30
2022-11-12T00:36:27.724Z,18.60
2022-11-12T00:39:13.987Z,18.70
2022-11-12T00:41:59.288Z,17.30
2022-11-12T00:44:44.920Z,20.00
2022-11-12T00:47:30.213Z,17.50
2022-11-12T00:50:15.858Z,18.30
2022-11-12T00:53:01.269Z,18.80
2022-11-12T00:55:46.339Z,22.00
2022-11-12T00:58:34.079Z,19.70
2022-11-12T01:01:20.059Z,19.60
2022-11-12T01:04:05.888Z,19.90
2022-11-12T01:06:51.447Z,21.00
2022-11-12T01:09:37.059Z,21.40
2022-11-12T01:12:22.392Z,18.80
2022-11-12T01:15:08.512Z,18.20
2022-11-12T01:17:54.135Z,15.90
2022-11-12T01:20:39.518Z,20.30
2022-11-12T01:23:24.628Z,21.90
2022-11-12T01:26:13.299Z,20.90
2022-11-12T01:28:59.260Z,21.40
2022-11-12T01:31:44.883Z,25.10
2022-11-12T01:34:30.007Z,23.90
2022-11-12T01:37:15.959Z,22.50
2022-11-12T01:40:01.290Z,24.00
2022-11-12T01:42:52.169Z,23.40
2022-11-12T01:45:42.378Z,21.10
2022-11-12T01:48:31.162Z,22.00
2022-11-12T01:51:18.888Z,22.20
2022-11-12T01:54:08.561Z,25.00
2022-11-12T01:56:57.050Z,24.20
2022-11-12T01:59:47.304Z,21.30
2022-11-12T02:02:35.477Z,23.10
2022-11-12T02:05:22.561Z,22.00
2022-11-12T02:08:10.593Z,22.70
2022-11-12T02:10:56.205Z,25.40
2022-11-12T02:13:58.391Z,22.30
2022-11-12T02:16:45.729Z,22.10
2022-11-12T02:19:31.014Z,20.80
2022-11-12T02:22:16.294Z,23.10
2022-11-12T02:25:01.544Z,22.00
2022-11-12T02:27:51.128Z,23.70
2022-11-12T02:30:39.146Z,21.80
2022-11-12T02:33:24.548Z,21.90
2022-11-12T02:36:09.801Z,22.10
2022-11-12T02:38:55.453Z,22.10
2022-11-12T02:41:41.285Z,20.00
2022-11-12T02:44:27.525Z,19.30
2022-11-12T02:47:12.690Z,19.20
2022-11-12T02:49:57.961Z,19.80
2022-11-12T02:52:43.112Z,20.90
2022-11-12T02:55:28.345Z,20.00
2022-11-12T02:58:13.756Z,18.40
2022-11-12T03:00:58.922Z,14.80
2022-11-12T03:03:44.365Z,17.50
2022-11-12T03:06:29.503Z,18.90
2022-11-12T03:09:14.856Z,17.90
2022-11-12T03:12:00.566Z,16.70
2022-11-12T03:14:45.972Z,15.50
2022-11-12T03:17:34.329Z,17.70
2022-11-12T03:20:20.476Z,18.00
2022-11-12T03:23:08.495Z,19.30
2022-11-12T03:25:53.865Z,15.60
2022-11-12T03:28:39.394Z,17.40
2022-11-12T03:31:24.792Z,16.30
2022-11-12T03:34:11.314Z,18.00
2022-11-12T03:36:56.833Z,15.30
2022-11-12T03:39:42.254Z,17.40
2022-11-12T03:42:27.665Z,15.00
2022-11-12T03:45:13.770Z,14.30
2022-11-12T03:47:59.210Z,19.00
2022-11-12T03:50:44.475Z,18.40
2022-11-12T03:53:29.713Z,16.20
2022-11-12T03:56:14.778Z,15.50
2022-11-12T03:59:00.230Z,15.00
2022-11-12T04:01:45.813Z,14.80
2022-11-12T04:04:50.995Z,13.50
2022-11-12T04:07:54.876Z,14.20
2022-11-12T04:10:40.660Z,13.30
2022-11-12T04:13:29.290Z,12.10
2022-11-12T04:16:36.542Z,16.20
2022-11-12T04:19:40.557Z,12.90
2022-11-12T04:22:26.240Z,15.50
2022-11-12T04:25:30.548Z,15.60
2022-11-12T04:28:16.190Z,19.50
2022-11-12T04:31:02.081Z,18.20
2022-11-12T04:33:47.455Z,18.20
2022-11-12T04:36:32.617Z,17.30
2022-11-12T04:39:18.259Z,18.30
2022-11-12T04:42:22.701Z,18.80
2022-11-12T04:45:10.029Z,16.60
2022-11-12T04:47:55.575Z,18.70
2022-11-12T04:50:42.949Z,16.50
2022-11-12T04:53:29.776Z,13.90
2022-11-12T04:56:15.599Z,18.00
2022-11-12T04:59:01.220Z,17.90
2022-11-12T05:01:46.603Z,15.50
2022-11-12T05:04:31.852Z,17.10
2022-11-12T05:07:17.799Z,16.40
2022-11-12T05:10:03.211Z,14.80
2022-11-12T05:12:48.799Z,17.40
2022-11-12T05:15:34.379Z,16.70
2022-11-12T05:18:20.225Z,17.80
2022-11-12T05:21:25.448Z,19.00
2022-11-12T05:24:22.382Z,18.20
2022-11-12T05:27:20.550Z,18.80
2022-11-12T05:30:07.342Z,17.50
2022-11-12T05:32:52.805Z,25.80
2022-11-12T05:35:38.145Z,27.00
2022-11-12T05:38:23.554Z,26.80
2022-11-12T05:41:09.051Z,21.10
2022-11-12T05:43:54.865Z,19.70
2022-11-12T05:46:40.158Z,17.50
2022-11-12T05:49:26.284Z,18.20
2022-11-12T05:52:11.840Z,17.80
2022-11-12T05:54:57.398Z,18.20
2022-11-12T05:57:42.661Z,17.40
2022-11-12T06:00:27.925Z,17.90
2022-11-12T06:03:13.685Z,18.10
2022-11-12T06:05:59.019Z,19.20
2022-11-12T06:08:44.708Z,20.40
2022-11-12T06:11:30.028Z,21.60
2022-11-12T06:14:15.508Z,24.10
2022-11-12T06:17:00.766Z,24.80
2022-11-12T06:19:46.358Z,32.10
2022-11-12T06:22:31.701Z,31.40
2022-11-12T06:25:17.262Z,27.80
2022-11-12T06:28:03.024Z,29.70
2022-11-12T06:30:48.285Z,20.20
2022-11-12T06:33:33.649Z,23.60
2022-11-12T06:36:20.669Z,20.70
2022-11-12T06:39:06.231Z,18.60
2022-11-12T06:41:51.363Z,17.20
2022-11-12T06:44:36.554Z,19.90
2022-11-12T06:47:21.878Z,19.50
2022-11-12T06:50:07.310Z,20.10
2022-11-12T06:52:57.970Z,20.50
2022-11-12T06:55:43.694Z,22.30
2022-11-12T06:58:29.763Z,21.70
2022-11-12T07:01:17.470Z,25.50
2022-11-12T07:04:03.745Z,19.90
2022-11-12T07:06:49.377Z,21.40
2022-11-12T07:09:35.061Z,23.70
2022-11-12T07:12:21.626Z,23.70
2022-11-12T07:15:07.482Z,27.00
2022-11-12T07:17:53.166Z,26.20
2022-11-12T07:20:38.456Z,26.50
2022-11-12T07:23:23.989Z,24.90
2022-11-12T07:26:15.732Z,25.90
2022-11-12T07:29:01.580Z,23.70
2022-11-12T07:31:47.104Z,23.40
2022-11-12T07:34:32.487Z,26.90
2022-11-12T07:37:17.646Z,25.80
2022-11-12T07:40:04.779Z,28.20
2022-11-12T07:42:50.250Z,22.80
2022-11-12T07:45:35.863Z,26.10
2022-11-12T07:48:21.693Z,24.70
2022-11-12T07:51:29.864Z,24.00
2022-11-12T07:54:15.357Z,22.90
2022-11-12T07:57:00.648Z,23.90
2022-11-12T07:59:46.478Z,30.10
2022-11-12T08:02:32.105Z,36.40
2022-11-12T08:05:21.162Z,30.90
2022-11-12T08:08:07.500Z,30.70
2022-11-12T08:10:55.115Z,28.00
2022-11-12T08:13:40.896Z,24.50
2022-11-12T08:16:26.308Z,20.60
2022-11-12T08:19:11.988Z,23.90
2022-11-12T08:21:57.911Z,24.10
2022-11-12T08:24:43.427Z,21.30
2022-11-12T08:27:28.657Z,23.10
2022-11-12T08:30:14.470Z,19.30
2022-11-12T08:33:05.228Z,20.50
2022-11-12T08:35:51.011Z,24.80
2022-11-12T08:38:37.240Z,26.30
2022-11-12T08:41:22.544Z,27.40
2022-11-12T08:44:08.879Z,32.30
2022-11-12T08:46:54.966Z,27.20
2022-11-12T08:49:43.796Z,24.80
2022-11-12T08:52:33.268Z,32.40
2022-11-12T08:55:20.092Z,22.30
2022-11-12T08:58:06.358Z,17.00
2022-11-12T09:00:53.371Z,18.30
2022-11-12T09:03:38.993Z,18.00
2022-11-12T09:06:24.689Z,17.10
2022-11-12T09:09:10.329Z,15.80
2022-11-12T09:11:55.711Z,17.30
2022-11-12T09:14:41.460Z,17.60
2022-11-12T09:17:28.674Z,15.70
2022-11-12T09:20:14.654Z,15.70
2022-11-12T09:23:06.744Z,15.20
2022-11-12T09:25:55.296Z,12.90
2022-11-12T09:28:40.694Z,14.40
2022-11-12T09:31:26.041Z,12.80
2022-11-12T09:34:11.379Z,13.50
2022-11-12T09:36:57.071Z,13.60
2022-11-12T09:39:42.543Z,14.00
2022-11-12T09:42:29.816Z,14.90
2022-11-12T09:45:30.770Z,13.30
2022-11-12T09:48:52.263Z,12.70
2022-11-12T09:51:44.607Z,14.00
2022-11-12T09:54:35.024Z,13.60
2022-11-12T09:57:20.553Z,12.80
2022-11-12T10:00:16.362Z,13.20
2022-11-12T10:03:27.163Z,14.00
2022-11-12T10:06:19.492Z,13.30
2022-11-12T10:09:15.958Z,14.50
2022-11-12T10:12:24.788Z,13.10
2022-11-12T10:15:37.341Z,13.00
2022-11-12T10:18:29.280Z,13.50
2022-11-12T10:21:36.030Z,13.20
2022-11-12T10:24:23.569Z,12.70
2022-11-12T10:27:27.312Z,14.10
2022-11-12T10:30:21.381Z,14.60
2022-11-12T10:33:13.520Z,12.20
2022-11-12T10:36:11.055Z,13.40
2022-11-12T10:38:56.556Z,14.20
2022-11-12T10:41:42.035Z,11.80
2022-11-12T10:44:27.385Z,12.60
2022-11-12T10:47:15.914Z,13.00
2022-11-12T10:50:10.643Z,11.60
2022-11-12T10:53:02.370Z,13.90
2022-11-12T10:56:01.934Z,16.00
2022-11-12T10:59:17.853Z,12.60
2022-11-12T11:02:16.469Z,14.00
2022-11-12T11:05:27.227Z,12.20
2022-11-12T11:08:12.450Z,13.30
2022-11-12T11:11:17.965Z,13.70
2022-11-12T11:14:33.991Z,12.30
2022-11-12T11:17:19.205Z,11.50
2022-11-12T11:20:14.153Z,10.40
2022-11-12T11:23:13.240Z,10.10
2022-11-12T11:26:09.767Z,14.20
2022-11-12T11:29:13.166Z,10.50
2022-11-12T11:32:10.535Z,9.40
2022-11-12T11:34:58.806Z,9.60
2022-11-12T11:38:03.107Z,9.80
2022-11-12T11:44:14.847Z,8.30
2022-11-12T11:47:18.894Z,9.70
2022-11-12T11:50:17.351Z,8.80
2022-11-12T11:53:11.555Z,10.40
2022-11-12T11:56:03.346Z,9.90
2022-11-12T11:59:05.282Z,10.50
2022-11-12T12:02:18.908Z,11.80
2022-11-12T12:05:31.560Z,10.90
2022-11-12T12:08:29.518Z,10.80
2022-11-12T12:11:23.843Z,11.80
2022-11-12T12:14:23.896Z,10.70
2022-11-12T12:17:22.003Z,12.30
2022-11-12T12:20:43.047Z,12.80
2022-11-12T12:23:38.934Z,12.00
2022-11-12T12:26:35.403Z,12.60
2022-11-12T12:29:42.577Z,12.00
2022-11-12T12:32:50.615Z,12.60
2022-11-12T12:36:01.764Z,11.50
2022-11-12T12:39:19.243Z,10.30
2022-11-12T12:42:15.051Z,11.80
2022-11-12T12:45:25.449Z,12.50
2022-11-12T12:48:26.949Z,11.60
2022-11-12T12:51:13.039Z,11.20
2022-11-12T12:53:58.681Z,14.30
2022-11-12T12:56:47.319Z,17.70
2022-11-12T12:59:33.151Z,20.10
2022-11-12T13:02:23.906Z,13.10
2022-11-12T13:05:28.213Z,11.30
2022-11-12T13:11:06.119Z,12.40
2022-11-12T13:13:51.768Z,12.40
2022-11-12T13:16:50.510Z,15.50
2022-11-12T13:20:07.512Z,12.50
2022-11-12T13:22:53.069Z,13.80
2022-11-12T13:25:38.966Z,15.50
2022-11-12T13:28:24.966Z,12.30
2022-11-12T13:31:28.892Z,13.10
2022-11-12T13:34:28.602Z,12.90
2022-11-12T13:37:22.832Z,12.00
2022-11-12T13:40:14.428Z,13.50
2022-11-12T13:43:17.392Z,13.30
2022-11-12T13:46:11.601Z,11.90
2022-11-12T13:48:56.883Z,13.50
2022-11-12T13:51:46.253Z,17.00
2022-11-12T13:54:37.233Z,14.50
2022-11-12T13:57:25.252Z,15.50
2022-11-12T14:00:26.549Z,20.60
2022-11-12T14:03:17.976Z,26.50
2022-11-12T14:06:19.023Z,27.50
2022-11-12T14:09:04.301Z,27.60
2022-11-12T14:11:55.692Z,28.20
2022-11-12T14:15:00.073Z,27.20
2022-11-12T14:18:04.181Z,19.30
2022-11-12T14:20:49.729Z,21.40
2022-11-12T14:23:37.672Z,22.60
2022-11-12T14:26:52.409Z,23.00
2022-11-12T14:29:42.466Z,20.00
2022-11-12T14:32:36.247Z,15.20
2022-11-12T14:35:24.747Z,13.50
2022-11-12T14:38:19.505Z,17.50
2022-11-12T14:41:37.115Z,18.60
2022-11-12T14:44:28.582Z,17.10
2022-11-12T14:47:17.461Z,18.00
2022-11-12T14:50:03.317Z,16.50
2022-11-12T14:52:53.247Z,17.10
2022-11-12T14:55:42.636Z,19.10
2022-11-12T14:58:28.806Z,16.10
2022-11-12T15:02:03.929Z,14.70
2022-11-12T15:04:36.811Z,15.10
2022-11-12T15:07:27.801Z,24.60
2022-11-12T15:10:39.604Z,32.40
2022-11-12T15:13:26.867Z,25.70
2022-11-12T15:16:21.050Z,21.80
2022-11-12T15:19:18.386Z,19.90
2022-11-12T15:22:07.088Z,23.80
2022-11-12T15:24:52.758Z,23.30
2022-11-12T15:27:40.720Z,41.70
2022-11-12T15:30:29.418Z,124.40
2022-11-12T15:33:22.222Z,30.60
2022-11-12T15:36:34.547Z,23.30
2022-11-12T15:39:20.728Z,22.40
2022-11-12T15:42:15.097Z,28.60
2022-11-12T15:45:29.036Z,27.70
2022-11-12T15:48:15.010Z,28.90
2022-11-12T15:51:00.671Z,22.70
2022-11-12T15:53:46.102Z,37.10
2022-11-12T15:56:31.744Z,24.00
2022-11-12T15:59:18.229Z,23.10
2022-11-12T16:02:12.377Z,25.40
2022-11-12T16:04:57.804Z,21.30
2022-11-12T16:07:42.868Z,21.20
2022-11-12T16:10:28.310Z,21.00
2022-11-12T16:13:19.543Z,20.20
2022-11-12T16:16:09.248Z,21.50
2022-11-12T16:18:54.691Z,24.00
2022-11-12T16:21:40.352Z,23.40
2022-11-12T16:24:25.912Z,23.60
2022-11-12T16:27:14.045Z,21.40
2022-11-12T16:29:59.488Z,21.70
2022-11-12T16:32:49.356Z,24.30
2022-11-12T16:35:35.391Z,24.50
2022-11-12T16:38:21.181Z,20.10
2022-11-12T16:41:11.761Z,21.00
2022-11-12T16:43:57.516Z,23.40
2022-11-12T16:46:43.415Z,20.70
2022-11-12T16:49:29.875Z,27.40
2022-11-12T16:52:18.438Z,26.60
2022-11-12T16:55:05.016Z,28.10
2022-11-12T16:57:51.088Z,25.80
2022-11-12T17:00:36.303Z,26.00
2022-11-12T17:03:21.470Z,21.80
2022-11-12T17:06:06.897Z,18.20
2022-11-12T17:08:53.924Z,21.80
2022-11-12T17:11:39.438Z,20.90
2022-11-12T17:14:28.286Z,23.80
2022-11-12T17:17:14.309Z,24.60
2022-11-12T17:19:59.944Z,27.30
2022-11-12T17:22:45.282Z,27.20
2022-11-12T17:25:30.505Z,26.10
2022-11-12T17:28:16.107Z,26.00
2022-11-12T17:31:20.949Z,23.50
2022-11-12T17:34:06.592Z,23.40
2022-11-12T17:36:51.794Z,21.30
2022-11-12T17:39:36.890Z,19.10
2022-11-12T17:42:22.177Z,19.20
2022-11-12T17:45:07.960Z,21.00
2022-11-12T17:47:53.166Z,26.10
2022-11-12T17:50:38.556Z,29.00
2022-11-12T17:53:23.656Z,33.50
2022-11-12T17:56:11.949Z,25.90
2022-11-12T17:58:57.559Z,28.30
2022-11-12T18:01:42.932Z,28.00
2022-11-12T18:04:31.540Z,26.00
2022-11-12T18:07:16.854Z,22.60
2022-11-12T18:10:02.759Z,25.00
2022-11-12T18:12:48.407Z,30.50
2022-11-12T18:15:34.012Z,36.20
2022-11-12T18:18:19.349Z,27.30
2022-11-12T18:21:04.815Z,26.90
2022-11-12T18:23:50.721Z,25.60
2022-11-12T18:26:36.918Z,26.50
2022-11-12T18:29:22.640Z,23.50
2022-11-12T18:32:08.223Z,20.20
2022-11-12T18:34:53.486Z,29.00
2022-11-12T18:37:38.709Z,23.30
2022-11-12T18:40:24.999Z,19.60
2022-11-12T18:43:10.309Z,21.50
2022-11-12T18:45:58.492Z,22.50
2022-11-12T18:48:44.205Z,23.80
2022-11-12T18:51:29.747Z,23.30
2022-11-12T18:54:15.717Z,23.40
2022-11-12T18:57:01.581Z,19.40
2022-11-12T18:59:47.460Z,26.30
2022-11-12T19:02:33.234Z,26.80
2022-11-12T19:05:20.355Z,28.80
2022-11-12T19:08:05.857Z,18.20
2022-11-12T19:11:06.343Z,18.90
2022-11-12T19:13:58.259Z,18.90
2022-11-12T19:16:44.272Z,19.70
2022-11-12T19:19:31.552Z,18.00
2022-11-12T19:22:17.595Z,17.50
2022-11-12T19:25:03.697Z,17.50
2022-11-12T19:27:49.242Z,19.10
2022-11-12T19:30:34.553Z,16.60
2022-11-12T19:33:19.983Z,19.60
2022-11-12T19:36:10.264Z,19.90
2022-11-12T19:38:57.738Z,20.30
2022-11-12T19:41:43.328Z,19.30
2022-11-12T19:44:28.449Z,18.20
2022-11-12T19:47:13.631Z,21.50
2022-11-12T19:49:58.826Z,20.00
2022-11-12T19:52:44.237Z,23.20
2022-11-12T19:55:37.138Z,21.20
2022-11-12T19:58:25.617Z,23.60
2022-11-12T20:01:13.756Z,21.90
2022-11-12T20:03:59.469Z,21.20
2022-11-12T20:06:44.710Z,21.60
2022-11-12T20:09:31.515Z,21.70
2022-11-12T20:12:17.166Z,25.00
2022-11-12T20:15:02.568Z,27.60
2022-11-12T20:17:48.249Z,22.90
2022-11-12T20:20:33.835Z,21.40
2022-11-12T20:23:20.064Z,20.50
2022-11-12T20:26:09.302Z,19.80
2022-11-12T20:28:54.678Z,18.80
2022-11-12T20:31:41.428Z,17.30
2022-11-12T20:34:26.612Z,16.80
2022-11-12T20:37:11.911Z,15.80
2022-11-12T20:39:57.526Z,14.40
2022-11-12T20:42:43.286Z,15.90
2022-11-12T20:45:28.789Z,14.30
2022-11-12T20:48:14.154Z,13.80
2022-11-12T20:51:30.158Z,13.70
2022-11-12T20:54:15.631Z,15.40
2022-11-12T21:17:19.936Z,16.50
2022-11-12T21:20:07.570Z,14.70
2022-11-12T21:22:54.172Z,16.30
2022-11-12T21:25:41.396Z,14.80
2022-11-12T21:28:28.171Z,17.20
2022-11-12T21:31:16.991Z,15.70
2022-11-12T21:34:05.032Z,14.40
2022-11-12T21:36:51.605Z,13.80
2022-11-12T21:39:38.578Z,14.90
2022-11-12T21:42:25.592Z,14.90
2022-11-12T21:45:12.675Z,13.30
2022-11-12T21:47:59.067Z,14.30
2022-11-12T21:50:46.021Z,15.00
2022-11-12T21:53:33.313Z,13.70
2022-11-12T21:56:20.587Z,13.80
2022-11-12T21:59:07.451Z,14.80
2022-11-12T22:01:54.124Z,15.60
2022-11-12T22:04:40.887Z,14.40
2022-11-12T22:07:27.648Z,15.50
2022-11-12T22:10:14.183Z,14.70
2022-11-12T22:16:13.807Z,12.70
2022-11-12T22:19:00.688Z,14.70
2022-11-12T22:21:47.373Z,15.40
2022-11-12T22:24:34.005Z,15.10
2022-11-12T22:27:20.508Z,15.40
2022-11-12T22:30:07.602Z,16.00
2022-11-12T22:32:54.257Z,15.60
2022-11-12T22:35:40.699Z,16.20
2022-11-12T22:38:27.882Z,15.90
2022-11-12T22:41:17.886Z,15.70
2022-11-12T22:44:04.547Z,16.30
2022-11-12T22:46:51.352Z,16.80
2022-11-12T22:49:38.192Z,16.60
2022-11-12T22:52:25.085Z,16.90
2022-11-12T22:55:12.549Z,19.60
2022-11-12T22:58:00.323Z,19.30
2022-11-12T23:00:47.068Z,14.30
2022-11-12T23:03:34.749Z,14.30
2022-11-12T23:06:21.791Z,14.40
2022-11-12T23:09:14.106Z,14.70
2022-11-12T23:12:00.765Z,16.30
2022-11-12T23:14:47.558Z,15.10
2022-11-12T23:17:34.220Z,14.30
2022-11-12T23:20:21.124Z,13.00
2022-11-12T23:23:08.023Z,13.40
2022-11-12T23:25:54.759Z,14.30
2022-11-12T23:28:41.757Z,14.30
2022-11-12T23:31:30.664Z,13.20
2022-11-12T23:34:17.538Z,14.00
2022-11-12T23:37:04.402Z,13.00
2022-11-12T23:39:51.274Z,13.00
2022-11-12T23:42:38.065Z,11.00
2022-11-12T23:45:24.976Z,11.40
2022-11-12T23:48:11.804Z,10.20
2022-11-12T23:51:15.537Z,12.90
2022-11-12T23:54:02.392Z,11.80
2022-11-12T23:56:49.376Z,11.20
2022-11-12T23:59:36.350Z,12.90
